createdAt,value
2022-09-25T00:01:49.828Z,15.95
2022-09-25T00:04:20.215Z,15.77
2022-09-25T00:06:49.630Z,15.75
2022-09-25T00:09:21.693Z,15.77
2022-09-25T00:11:51.091Z,15.80
2022-09-25T00:14:20.519Z,15.86
2022-09-25T00:16:52.547Z,15.93
2022-09-25T00:19:35.571Z,15.93
2022-09-25T00:22:04.954Z,15.91
2022-09-25T00:24:34.842Z,15.87
2022-09-25T00:27:06.078Z,15.86
2022-09-25T00:29:35.604Z,15.87
2022-09-25T00:32:07.925Z,15.83
2022-09-25T00:34:37.385Z,15.80
2022-09-25T00:37:07.270Z,15.73
2022-09-25T00:39:36.820Z,15.67
2022-09-25T00:42:06.436Z,15.67
2022-09-25T00:44:56.606Z,15.67
2022-09-25T00:47:31.637Z,15.69
2022-09-25T00:50:01.176Z,15.72
2022-09-25T00:52:30.583Z,15.74
2022-09-25T00:55:02.180Z,15.71
2022-09-25T00:57:32.449Z,15.69
2022-09-25T01:00:03.511Z,15.53
2022-09-25T01:02:39.573Z,15.55
2022-09-25T01:05:11.364Z,15.58
2022-09-25T01:07:42.020Z,15.60
2022-09-25T01:10:11.998Z,15.64
2022-09-25T01:12:43.521Z,15.68
2022-09-25T01:15:13.719Z,15.70
2022-09-25T01:17:47.917Z,15.66
2022-09-25T01:20:19.484Z,15.59
2022-09-25T01:22:54.475Z,15.55
2022-09-25T01:25:30.369Z,15.40
2022-09-25T01:28:09.489Z,15.29
2022-09-25T01:30:44.141Z,15.14
2022-09-25T01:33:16.047Z,15.11
2022-09-25T01:35:48.601Z,15.17
2022-09-25T01:38:24.649Z,15.19
2022-09-25T01:40:56.878Z,15.19
2022-09-25T01:43:27.960Z,15.31
2022-09-25T01:46:03.371Z,15.30
2022-09-25T01:48:34.081Z,15.18
2022-09-25T01:51:04.733Z,15.13
2022-09-25T01:53:36.883Z,15.13
2022-09-25T01:56:08.749Z,15.26
2022-09-25T01:58:39.511Z,15.32
2022-09-25T02:01:13.400Z,15.37
2022-09-25T02:03:44.827Z,15.39
2022-09-25T02:06:16.229Z,15.48
2022-09-25T02:08:47.707Z,15.53
2022-09-25T02:11:17.110Z,15.55
2022-09-25T02:13:49.596Z,15.55
2022-09-25T02:16:23.660Z,15.53
2022-09-25T02:19:05.613Z,15.52
2022-09-25T02:21:40.498Z,15.47
2022-09-25T02:24:15.494Z,15.50
2022-09-25T02:26:44.898Z,15.48
2022-09-25T02:29:15.462Z,15.46
2022-09-25T02:31:49.223Z,15.47
2022-09-25T02:34:18.772Z,15.46
2022-09-25T02:36:48.661Z,15.48
2022-09-25T02:39:19.589Z,15.53
2022-09-25T02:42:08.480Z,15.58
2022-09-25T02:44:43.574Z,15.57
2022-09-25T02:47:22.527Z,15.59
2022-09-25T02:49:53.870Z,15.60
2022-09-25T02:52:28.663Z,15.58
2022-09-25T02:54:59.575Z,15.58
2022-09-25T02:57:32.022Z,15.58
2022-09-25T03:00:03.035Z,15.62
2022-09-25T03:02:35.114Z,15.60
2022-09-25T03:05:04.693Z,15.61
2022-09-25T03:07:54.221Z,15.65
2022-09-25T03:10:21.142Z,15.67
2022-09-25T03:12:50.593Z,15.67
2022-09-25T03:15:20.490Z,15.65
2022-09-25T03:17:53.312Z,15.67
2022-09-25T03:20:22.725Z,15.69
2022-09-25T03:22:52.107Z,15.66
2022-09-25T03:25:22.513Z,15.64
2022-09-25T03:27:51.907Z,15.65
2022-09-25T03:30:21.297Z,15.62
2022-09-25T03:32:53.275Z,15.60
2022-09-25T03:35:23.085Z,15.62
2022-09-25T03:37:52.483Z,15.62
2022-09-25T03:40:21.922Z,15.64
2022-09-25T03:42:51.404Z,15.65
2022-09-25T03:45:20.781Z,15.65
2022-09-25T03:47:52.749Z,15.66
2022-09-25T03:50:22.129Z,15.65
2022-09-25T03:52:51.528Z,15.63
2022-09-25T03:55:22.366Z,15.60
2022-09-25T03:57:51.758Z,15.59
2022-09-25T04:00:21.204Z,15.62
2022-09-25T04:02:53.436Z,15.67
2022-09-25T04:05:22.900Z,15.67
2022-09-25T04:07:52.303Z,15.69
2022-09-25T04:10:21.689Z,15.71
2022-09-25T04:12:55.579Z,15.72
2022-09-25T04:15:25.706Z,15.73
2022-09-25T04:18:01.177Z,15.73
2022-09-25T04:20:34.565Z,15.76
2022-09-25T04:23:04.043Z,15.75
2022-09-25T04:25:33.453Z,15.74
2022-09-25T04:28:02.979Z,15.56
2022-09-25T04:30:32.422Z,15.49
2022-09-25T04:33:16.893Z,15.54
2022-09-25T04:35:46.322Z,15.58
2022-09-25T04:38:15.692Z,15.64
2022-09-25T04:40:46.053Z,15.69
2022-09-25T04:43:15.613Z,15.69
2022-09-25T04:45:47.275Z,15.68
2022-09-25T04:48:19.346Z,15.71
2022-09-25T04:50:51.623Z,15.71
2022-09-25T04:53:23.013Z,15.73
2022-09-25T04:55:54.358Z,15.73
2022-09-25T04:58:23.905Z,15.75
2022-09-25T05:00:53.375Z,15.76
2022-09-25T05:03:25.485Z,15.75
2022-09-25T05:05:54.913Z,15.76
2022-09-25T05:08:24.314Z,15.78
2022-09-25T05:10:53.711Z,15.77
2022-09-25T05:13:23.394Z,15.77
2022-09-25T05:15:52.941Z,15.80
2022-09-25T05:18:25.322Z,15.81
2022-09-25T05:20:55.066Z,15.79
2022-09-25T05:23:24.446Z,15.72
2022-09-25T05:25:55.184Z,15.62
2022-09-25T05:28:24.871Z,15.57
2022-09-25T05:30:54.270Z,15.53
2022-09-25T05:33:26.236Z,15.49
2022-09-25T05:35:55.643Z,15.46
2022-09-25T05:38:25.013Z,15.41
2022-09-25T05:40:54.438Z,15.42
2022-09-25T05:43:24.897Z,15.38
2022-09-25T05:45:57.629Z,15.38
2022-09-25T05:48:29.751Z,15.39
2022-09-25T05:50:59.626Z,15.39
2022-09-25T05:53:30.328Z,15.37
2022-09-25T05:56:01.024Z,15.38
2022-09-25T05:58:31.045Z,15.38
2022-09-25T06:01:03.235Z,15.41
2022-09-25T06:03:35.477Z,15.40
2022-09-25T06:06:05.261Z,15.43
2022-09-25T06:08:35.572Z,15.47
2022-09-25T06:11:05.117Z,15.49
2022-09-25T06:13:35.242Z,15.56
2022-09-25T06:16:05.430Z,15.58
2022-09-25T06:18:37.566Z,15.57
2022-09-25T06:21:08.022Z,15.55
2022-09-25T06:23:37.439Z,15.56
2022-09-25T06:26:09.373Z,15.59
2022-09-25T06:28:38.768Z,15.62
2022-09-25T06:31:08.247Z,15.62
2022-09-25T06:33:40.460Z,15.63
2022-09-25T06:36:09.971Z,15.58
2022-09-25T06:38:39.758Z,15.45
2022-09-25T06:41:09.324Z,15.35
2022-09-25T06:43:38.765Z,15.41
2022-09-25T06:46:08.336Z,15.51
2022-09-25T06:48:40.543Z,15.62
2022-09-25T06:51:11.085Z,15.69
2022-09-25T06:53:40.493Z,15.75
2022-09-25T06:56:13.480Z,15.83
2022-09-25T06:58:42.896Z,15.87
2022-09-25T07:01:13.882Z,15.92
2022-09-25T07:03:45.886Z,16.00
2022-09-25T07:06:16.452Z,16.01
2022-09-25T07:08:46.367Z,15.93
2022-09-25T07:11:16.960Z,15.88
2022-09-25T07:13:46.359Z,15.88
2022-09-25T07:16:16.670Z,15.90
2022-09-25T07:18:48.821Z,15.90
2022-09-25T07:21:19.157Z,15.88
2022-09-25T07:23:49.632Z,15.90
2022-09-25T07:26:22.588Z,16.05
2022-09-25T07:28:55.490Z,16.21
2022-09-25T07:31:26.084Z,16.12
2022-09-25T07:33:58.720Z,16.17
2022-09-25T07:36:28.688Z,16.31
2022-09-25T07:38:58.081Z,16.16
2022-09-25T07:41:27.459Z,16.37
2022-09-25T07:44:27.803Z,16.53
2022-09-25T07:46:46.868Z,16.71
2022-09-25T07:49:18.942Z,16.85
2022-09-25T07:51:48.387Z,16.96
2022-09-25T07:54:17.815Z,17.04
2022-09-25T07:56:47.229Z,17.15
2022-09-25T07:59:16.643Z,17.17
2022-09-25T08:01:51.219Z,17.17
2022-09-25T08:04:25.883Z,17.10
2022-09-25T08:06:55.284Z,17.13
2022-09-25T08:09:24.673Z,17.14
2022-09-25T08:11:54.185Z,17.14
2022-09-25T08:14:27.003Z,17.14
2022-09-25T08:16:57.011Z,17.11
2022-09-25T08:19:28.979Z,16.98
2022-09-25T08:21:58.394Z,16.72
2022-09-25T08:24:27.809Z,16.54
2022-09-25T08:26:57.210Z,16.41
2022-09-25T08:29:27.066Z,16.45
2022-09-25T08:31:56.473Z,16.51
2022-09-25T08:34:40.435Z,16.41
2022-09-25T08:37:12.862Z,16.37
2022-09-25T08:39:42.274Z,16.48
2022-09-25T08:42:13.460Z,16.57
2022-09-25T08:45:02.509Z,16.67
2022-09-25T08:47:55.157Z,16.77
2022-09-25T08:50:25.266Z,16.78
2022-09-25T08:53:00.068Z,16.73
2022-09-25T08:55:51.347Z,16.72
2022-09-25T08:58:22.527Z,16.74
2022-09-25T09:00:51.993Z,16.75
2022-09-25T09:03:21.399Z,16.76
2022-09-25T09:05:51.766Z,16.50
2022-09-25T09:08:25.784Z,16.26
2022-09-25T09:10:56.705Z,16.40
2022-09-25T09:13:28.647Z,16.68
2022-09-25T09:16:01.922Z,17.02
2022-09-25T09:18:33.044Z,17.30
2022-09-25T09:21:04.294Z,17.53
2022-09-25T09:23:37.343Z,17.55
2022-09-25T09:26:07.653Z,17.54
2022-09-25T09:29:00.023Z,17.58
2022-09-25T09:31:32.276Z,17.72
2022-09-25T09:34:07.625Z,17.70
2022-09-25T09:36:39.745Z,17.61
2022-09-25T09:39:16.286Z,17.55
2022-09-25T09:41:54.564Z,17.53
2022-09-25T09:44:31.387Z,17.58
2022-09-25T09:47:10.919Z,17.68
2022-09-25T09:49:42.607Z,17.86
2022-09-25T09:52:14.596Z,18.06
2022-09-25T09:54:47.551Z,18.15
2022-09-25T09:57:20.216Z,18.14
2022-09-25T09:59:52.142Z,18.21
2022-09-25T10:02:30.009Z,18.09
2022-09-25T10:04:59.562Z,17.99
2022-09-25T10:07:29.093Z,18.00
2022-09-25T10:10:01.090Z,18.15
2022-09-25T10:12:32.901Z,18.31
2022-09-25T10:15:04.506Z,18.31
2022-09-25T10:17:36.128Z,18.21
2022-09-25T10:20:07.910Z,18.03
2022-09-25T10:22:39.809Z,18.04
2022-09-25T10:25:12.205Z,18.17
2022-09-25T10:27:46.268Z,18.15
2022-09-25T10:30:23.044Z,18.11
2022-09-25T10:33:00.965Z,18.04
2022-09-25T10:35:31.501Z,17.81
2022-09-25T10:38:02.986Z,17.81
2022-09-25T10:40:36.987Z,17.81
2022-09-25T10:43:08.819Z,17.53
2022-09-25T10:45:40.843Z,17.33
2022-09-25T10:48:39.722Z,17.12
2022-09-25T10:51:10.697Z,17.03
2022-09-25T10:53:40.243Z,17.08
2022-09-25T10:56:13.629Z,17.12
2022-09-25T10:58:44.297Z,17.10
2022-09-25T11:01:14.919Z,16.99
2022-09-25T11:03:49.119Z,16.76
2022-09-25T11:06:25.110Z,16.56
2022-09-25T11:09:07.862Z,16.63
2022-09-25T11:11:39.958Z,16.68
2022-09-25T11:14:11.303Z,16.72
2022-09-25T11:16:49.184Z,16.71
2022-09-25T11:19:22.394Z,16.67
2022-09-25T11:21:59.983Z,16.64
2022-09-25T11:24:33.151Z,16.64
2022-09-25T11:27:07.566Z,16.68
2022-09-25T11:29:44.395Z,16.58
2022-09-25T11:32:17.959Z,16.50
2022-09-25T11:34:58.035Z,16.48
2022-09-25T11:37:29.640Z,16.46
2022-09-25T11:40:23.838Z,16.59
2022-09-25T11:43:00.942Z,16.58
2022-09-25T11:45:36.817Z,16.66
2022-09-25T11:48:08.038Z,16.76
2022-09-25T11:50:47.928Z,16.73
2022-09-25T11:53:22.740Z,16.59
2022-09-25T11:56:02.464Z,16.67
2022-09-25T11:58:41.650Z,16.58
2022-09-25T12:01:21.160Z,16.59
2022-09-25T12:03:59.302Z,16.50
2022-09-25T12:06:49.105Z,16.34
2022-09-25T12:09:26.000Z,16.33
2022-09-25T12:11:59.792Z,16.35
2022-09-25T12:14:35.171Z,16.37
2022-09-25T12:17:07.811Z,16.39
2022-09-25T12:19:40.968Z,16.32
2022-09-25T12:22:13.957Z,16.28
2022-09-25T12:24:53.647Z,16.23
2022-09-25T12:27:26.202Z,16.22
2022-09-25T12:30:11.846Z,16.26
2022-09-25T12:33:05.212Z,16.20
2022-09-25T12:35:42.478Z,16.26
2022-09-25T12:38:19.520Z,16.17
2022-09-25T12:40:51.218Z,16.23
2022-09-25T12:43:24.167Z,16.28
2022-09-25T12:45:59.610Z,16.30
2022-09-25T12:48:33.393Z,16.31
2022-09-25T12:51:05.745Z,16.30
2022-09-25T12:53:38.506Z,16.25
2022-09-25T12:56:13.260Z,16.29
2022-09-25T12:58:50.650Z,16.28
2022-09-25T13:01:25.876Z,16.32
2022-09-25T13:04:01.141Z,16.39
2022-09-25T13:06:34.257Z,16.43
2022-09-25T13:09:05.207Z,16.33
2022-09-25T13:11:38.298Z,16.33
2022-09-25T13:14:09.431Z,16.42
2022-09-25T13:16:41.479Z,16.54
2022-09-25T13:19:14.568Z,16.62
2022-09-25T13:21:44.634Z,16.71
2022-09-25T13:24:16.206Z,16.73
2022-09-25T13:26:47.364Z,16.81
2022-09-25T13:29:23.856Z,16.90
2022-09-25T13:31:55.820Z,16.93
2022-09-25T13:34:26.562Z,16.93
2022-09-25T13:36:56.730Z,16.98
2022-09-25T13:39:42.002Z,16.94
2022-09-25T13:42:18.041Z,16.97
2022-09-25T13:45:07.742Z,16.93
2022-09-25T13:48:06.080Z,17.02
2022-09-25T13:50:41.110Z,17.13
2022-09-25T13:53:26.297Z,17.14
2022-09-25T13:56:29.405Z,17.15
2022-09-25T13:59:23.311Z,17.27
2022-09-25T14:02:00.586Z,17.33
2022-09-25T14:04:39.989Z,17.32
2022-09-25T14:07:16.546Z,17.31
2022-09-25T14:09:47.993Z,17.32
2022-09-25T14:12:25.440Z,17.18
2022-09-25T14:14:58.062Z,17.21
2022-09-25T14:17:29.874Z,17.21
2022-09-25T14:20:02.794Z,17.23
2022-09-25T14:22:44.451Z,17.24
2022-09-25T14:25:27.846Z,17.16
2022-09-25T14:27:57.339Z,17.11
2022-09-25T14:30:29.280Z,17.07
2022-09-25T14:33:17.981Z,16.85
2022-09-25T14:35:57.504Z,16.84
2022-09-25T14:38:47.601Z,16.86
2022-09-25T14:41:28.266Z,16.84
2022-09-25T14:44:06.432Z,16.93
2022-09-25T14:46:35.839Z,16.84
2022-09-25T14:49:07.476Z,16.81
2022-09-25T14:51:44.548Z,16.80
2022-09-25T14:54:17.344Z,16.90
2022-09-25T14:56:48.543Z,16.88
2022-09-25T14:59:19.721Z,16.88
2022-09-25T15:01:50.565Z,16.90
2022-09-25T15:04:28.216Z,16.86
2022-09-25T15:07:06.069Z,16.75
2022-09-25T15:09:42.208Z,16.74
2022-09-25T15:12:19.831Z,16.73
2022-09-25T15:15:07.791Z,16.76
2022-09-25T15:17:37.723Z,16.82
2022-09-25T15:20:09.506Z,16.78
2022-09-25T15:22:41.529Z,16.81
2022-09-25T15:25:11.587Z,16.82
2022-09-25T15:27:42.924Z,16.80
2022-09-25T15:30:17.638Z,16.78
2022-09-25T15:32:47.143Z,16.73
2022-09-25T15:35:20.530Z,16.74
2022-09-25T15:37:52.514Z,16.72
2022-09-25T15:40:25.821Z,16.74
2022-09-25T15:43:02.818Z,16.71
2022-09-25T15:45:40.624Z,16.63
2022-09-25T15:48:20.827Z,16.61
2022-09-25T15:50:50.218Z,16.62
2022-09-25T15:53:24.629Z,16.58
2022-09-25T15:55:54.105Z,16.45
2022-09-25T15:58:23.493Z,16.40
2022-09-25T16:01:13.956Z,16.38
2022-09-25T16:04:00.125Z,16.35
2022-09-25T16:06:30.772Z,16.30
2022-09-25T16:09:20.181Z,16.24
2022-09-25T16:11:50.201Z,16.13
2022-09-25T16:14:22.921Z,16.14
2022-09-25T16:16:52.889Z,16.15
2022-09-25T16:19:27.825Z,16.18
2022-09-25T16:21:57.278Z,16.26
2022-09-25T16:24:29.866Z,16.32
2022-09-25T16:27:00.834Z,16.42
2022-09-25T16:29:30.977Z,16.47
2022-09-25T16:32:03.531Z,16.46
2022-09-25T16:34:33.699Z,16.52
2022-09-25T16:37:05.188Z,16.57
2022-09-25T16:39:38.732Z,16.55
2022-09-25T16:42:27.719Z,16.54
2022-09-25T16:45:04.893Z,16.59
2022-09-25T16:47:35.128Z,16.61
2022-09-25T16:50:04.739Z,16.58
2022-09-25T16:52:34.791Z,16.51
2022-09-25T16:55:09.120Z,16.53
2022-09-25T16:57:41.351Z,16.50
2022-09-25T17:00:19.175Z,16.49
2022-09-25T17:02:49.404Z,16.50
2022-09-25T17:05:20.577Z,16.53
2022-09-25T17:07:50.241Z,16.53
2022-09-25T17:10:23.420Z,16.46
2022-09-25T17:12:54.058Z,16.41
2022-09-25T17:15:25.409Z,16.35
2022-09-25T17:17:55.963Z,16.28
2022-09-25T17:20:25.886Z,16.24
2022-09-25T17:22:55.867Z,16.19
2022-09-25T17:25:38.254Z,16.10
2022-09-25T17:28:08.130Z,16.05
2022-09-25T17:30:37.633Z,16.01
2022-09-25T17:33:07.850Z,16.02
2022-09-25T17:35:42.902Z,15.98
2022-09-25T17:38:12.752Z,15.88
2022-09-25T17:40:45.821Z,15.80
2022-09-25T17:43:16.068Z,15.77
2022-09-25T17:45:49.096Z,15.79
2022-09-25T17:48:23.505Z,15.77
2022-09-25T17:50:52.934Z,15.65
2022-09-25T17:53:23.594Z,15.62
2022-09-25T17:55:55.586Z,15.59
2022-09-25T17:58:25.788Z,15.59
2022-09-25T18:00:55.777Z,15.57
2022-09-25T18:03:25.172Z,15.55
2022-09-25T18:05:55.237Z,15.47
2022-09-25T18:08:24.620Z,15.48
2022-09-25T18:10:58.598Z,15.49
2022-09-25T18:13:28.017Z,15.49
2022-09-25T18:15:58.543Z,15.46
2022-09-25T18:18:48.108Z,15.44
2022-09-25T18:21:41.553Z,15.41
2022-09-25T18:24:10.949Z,15.36
2022-09-25T18:26:42.951Z,15.33
2022-09-25T18:29:12.656Z,15.31
2022-09-25T18:31:42.272Z,15.28
2022-09-25T18:34:11.677Z,15.25
2022-09-25T18:36:41.056Z,15.23
2022-09-25T18:39:13.756Z,15.20
2022-09-25T18:41:48.453Z,15.17
2022-09-25T18:44:19.577Z,15.12
2022-09-25T18:46:48.838Z,15.06
2022-09-25T18:49:18.812Z,15.01
2022-09-25T18:51:48.294Z,14.99
2022-09-25T18:54:17.869Z,15.00
2022-09-25T18:56:49.860Z,15.00
2022-09-25T18:59:19.278Z,15.00
2022-09-25T19:01:48.841Z,15.01
2022-09-25T19:04:20.813Z,14.99
2022-09-25T19:06:50.259Z,14.98
2022-09-25T19:09:19.967Z,14.96
2022-09-25T19:11:52.074Z,14.93
2022-09-25T19:14:21.523Z,14.94
2022-09-25T19:16:51.824Z,14.93
2022-09-25T19:19:21.420Z,14.94
2022-09-25T19:21:50.811Z,14.94
2022-09-25T19:24:20.928Z,14.93
2022-09-25T19:26:52.928Z,14.88
2022-09-25T19:29:22.550Z,14.83
2022-09-25T19:31:51.943Z,14.79
2022-09-25T19:34:21.360Z,14.77
2022-09-25T19:36:51.056Z,14.77
2022-09-25T19:39:20.586Z,14.72
2022-09-25T19:41:50.266Z,14.70
2022-09-25T19:44:23.000Z,14.73
2022-09-25T19:46:52.544Z,14.76
2022-09-25T19:49:22.601Z,14.75
2022-09-25T19:51:51.990Z,14.75
2022-09-25T19:54:21.485Z,14.74
2022-09-25T19:56:50.867Z,14.71
2022-09-25T19:59:23.144Z,14.68
2022-09-25T20:01:53.506Z,14.67
2022-09-25T20:04:23.016Z,14.66
2022-09-25T20:06:52.394Z,14.70
2022-09-25T20:09:21.781Z,14.69
2022-09-25T20:11:51.158Z,14.71
2022-09-25T20:14:25.620Z,14.71
2022-09-25T20:16:55.840Z,14.69
2022-09-25T20:19:26.000Z,14.67
2022-09-25T20:21:55.999Z,14.57
2022-09-25T20:24:25.557Z,14.60
2022-09-25T20:26:55.558Z,14.63
2022-09-25T20:29:27.596Z,14.63
2022-09-25T20:31:57.041Z,14.59
2022-09-25T20:34:26.656Z,14.51
2022-09-25T20:36:56.062Z,14.34
2022-09-25T20:39:27.442Z,14.19
2022-09-25T20:41:56.829Z,14.07
2022-09-25T20:44:28.808Z,14.01
2022-09-25T20:46:58.284Z,14.12
2022-09-25T20:49:27.799Z,14.14
2022-09-25T20:51:57.203Z,14.09
2022-09-25T20:54:27.197Z,14.14
2022-09-25T20:56:56.697Z,14.14
2022-09-25T20:59:28.997Z,14.12
2022-09-25T21:01:58.762Z,14.11
2022-09-25T21:04:28.398Z,14.10
2022-09-25T21:06:57.779Z,14.05
2022-09-25T21:09:29.026Z,14.04
2022-09-25T21:11:58.814Z,14.03
2022-09-25T21:14:33.174Z,14.02
2022-09-25T21:17:02.592Z,14.01
2022-09-25T21:19:32.081Z,13.97
2022-09-25T21:22:01.464Z,13.93
2022-09-25T21:24:30.916Z,13.89
2022-09-25T21:27:00.346Z,13.85
2022-09-25T21:29:33.789Z,13.83
2022-09-25T21:32:03.898Z,13.77
2022-09-25T21:34:33.475Z,13.76
2022-09-25T21:37:02.858Z,13.73
2022-09-25T21:39:32.284Z,13.70
2022-09-25T21:42:03.064Z,13.71
2022-09-25T21:44:35.433Z,13.67
2022-09-25T21:47:04.831Z,13.63
2022-09-25T21:49:34.320Z,13.62
2022-09-25T21:52:04.441Z,13.63
2022-09-25T21:54:33.969Z,13.64
2022-09-25T21:57:03.362Z,13.63
2022-09-25T21:59:35.521Z,13.56
2022-09-25T22:02:04.929Z,13.50
2022-09-25T22:04:34.331Z,13.46
2022-09-25T22:07:03.722Z,13.46
2022-09-25T22:09:33.104Z,13.46
2022-09-25T22:12:02.493Z,13.47
2022-09-25T22:14:31.918Z,13.46
2022-09-25T22:17:04.027Z,13.45
2022-09-25T22:19:33.483Z,13.43
2022-09-25T22:22:02.984Z,13.39
2022-09-25T22:24:32.389Z,13.35
2022-09-25T22:27:01.814Z,13.34
2022-09-25T22:29:31.819Z,13.33
2022-09-25T22:32:04.093Z,13.33
2022-09-25T22:34:33.648Z,13.29
2022-09-25T22:37:03.038Z,13.25
2022-09-25T22:39:32.490Z,13.24
2022-09-25T22:42:02.055Z,13.24
2022-09-25T22:44:31.470Z,13.25
2022-09-25T22:47:03.921Z,13.21
2022-09-25T22:49:36.144Z,13.18
2022-09-25T22:52:05.562Z,13.18
2022-09-25T22:54:35.006Z,13.15
2022-09-25T22:57:04.397Z,13.14
2022-09-25T22:59:33.842Z,13.12
2022-09-25T23:02:03.229Z,13.12
2022-09-25T23:04:32.649Z,13.11
2022-09-25T23:07:04.610Z,13.09
2022-09-25T23:09:33.993Z,13.08
2022-09-25T23:12:03.962Z,13.05
2022-09-25T23:14:33.762Z,13.03
2022-09-25T23:17:03.272Z,13.02
2022-09-25T23:19:32.676Z,12.98
2022-09-25T23:22:05.322Z,12.98
2022-09-25T23:24:34.881Z,13.01
2022-09-25T23:27:04.293Z,12.99
2022-09-25T23:29:33.739Z,12.96
2022-09-25T23:32:08.014Z,12.94
2022-09-25T23:34:37.483Z,12.93
2022-09-25T23:37:09.480Z,12.92
2022-09-25T23:39:39.066Z,12.89
2022-09-25T23:42:08.627Z,12.89
2022-09-25T23:44:38.072Z,12.89
2022-09-25T23:47:07.566Z,12.85
2022-09-25T23:49:36.946Z,12.82
2022-09-25T23:52:08.961Z,12.79
2022-09-25T23:54:38.363Z,12.79
2022-09-25T23:57:07.778Z,12.79
2022-09-25T23:59:37.189Z,12.74
